sensor_id;sensor_type;location;lat;lon;timestamp;P1;durP1;ratioP1;P2;durP2;ratioP2
10403;SDS011;5248;47.374;8.486;2023-04-24T00:01:05;1.97;;;0.70;;
10403;SDS011;5248;47.374;8.486;2023-04-24T00:03:32;0.50;;;0.50;;
10403;SDS011;5248;47.374;8.486;2023-04-24T00:05:59;0.87;;;0.33;;
10403;SDS011;5248;47.374;8.486;2023-04-24T00:08:28;0.67;;;0.67;;
10403;SDS011;5248;47.374;8.486;2023-04-24T00:10:54;0.70;;;0.70;;
10403;SDS011;5248;47.374;8.486;2023-04-24T00:13:22;0.60;;;0.40;;
10403;SDS011;5248;47.374;8.486;2023-04-24T00:15:49;1.03;;;0.50;;
10403;SDS011;5248;47.374;8.486;2023-04-24T00:18:16;0.57;;;0.57;;
10403;SDS011;5248;47.374;8.486;2023-04-24T00:20:42;0.50;;;0.50;;
10403;SDS011;5248;47.374;8.486;2023-04-24T00:23:09;0.63;;;0.57;;
10403;SDS011;5248;47.374;8.486;2023-04-24T00:25:36;0.40;;;0.40;;
10403;SDS011;5248;47.374;8.486;2023-04-24T00:28:03;0.40;;;0.40;;
10403;SDS011;5248;47.374;8.486;2023-04-24T00:30:31;0.47;;;0.47;;
10403;SDS011;5248;47.374;8.486;2023-04-24T00:32:58;0.57;;;0.57;;
10403;SDS011;5248;47.374;8.486;2023-04-24T00:35:24;0.37;;;0.30;;
10403;SDS011;5248;47.374;8.486;2023-04-24T00:37:52;0.67;;;0.40;;
10403;SDS011;5248;47.374;8.486;2023-04-24T00:40:42;0.60;;;0.60;;
10403;SDS011;5248;47.374;8.486;2023-04-24T00:43:09;0.50;;;0.30;;
10403;SDS011;5248;47.374;8.486;2023-04-24T00:45:37;0.83;;;0.40;;
10403;SDS011;5248;47.374;8.486;2023-04-24T00:48:03;2.57;;;0.30;;
10403;SDS011;5248;47.374;8.486;2023-04-24T00:50:30;1.50;;;0.47;;
10403;SDS011;5248;47.374;8.486;2023-04-24T00:52:57;0.20;;;0.20;;
10403;SDS011;5248;47.374;8.486;2023-04-24T00:55:25;0.73;;;0.30;;
10403;SDS011;5248;47.374;8.486;2023-04-24T00:57:57;1.40;;;0.40;;
10403;SDS011;5248;47.374;8.486;2023-04-24T01:00:24;0.27;;;0.27;;
10403;SDS011;5248;47.374;8.486;2023-04-24T01:02:53;1.40;;;0.30;;
10403;SDS011;5248;47.374;8.486;2023-04-24T01:05:19;0.77;;;0.20;;
10403;SDS011;5248;47.374;8.486;2023-04-24T01:07:46;0.03;;;0.03;;
10403;SDS011;5248;47.374;8.486;2023-04-24T01:10:14;0.27;;;0.20;;
10403;SDS011;5248;47.374;8.486;2023-04-24T01:12:42;0.30;;;0.30;;
10403;SDS011;5248;47.374;8.486;2023-04-24T01:15:08;0.10;;;0.10;;
10403;SDS011;5248;47.374;8.486;2023-04-24T01:17:36;0.50;;;0.30;;
10403;SDS011;5248;47.374;8.486;2023-04-24T01:20:05;0.17;;;0.10;;
10403;SDS011;5248;47.374;8.486;2023-04-24T01:22:35;0.23;;;0.23;;
10403;SDS011;5248;47.374;8.486;2023-04-24T01:25:03;0.10;;;0.10;;
10403;SDS011;5248;47.374;8.486;2023-04-24T01:27:30;0.10;;;0.10;;
10403;SDS011;5248;47.374;8.486;2023-04-24T01:29:57;0.10;;;0.10;;
10403;SDS011;5248;47.374;8.486;2023-04-24T01:32:24;0.20;;;0.20;;
10403;SDS011;5248;47.374;8.486;2023-04-24T01:34:51;0.10;;;0.10;;
10403;SDS011;5248;47.374;8.486;2023-04-24T01:37:18;0.20;;;0.20;;
10403;SDS011;5248;47.374;8.486;2023-04-24T01:39:46;0.60;;;0.20;;
10403;SDS011;5248;47.374;8.486;2023-04-24T01:42:13;0.20;;;0.13;;
10403;SDS011;5248;47.374;8.486;2023-04-24T01:44:40;0.93;;;0.20;;
10403;SDS011;5248;47.374;8.486;2023-04-24T01:47:07;0.20;;;0.20;;
10403;SDS011;5248;47.374;8.486;2023-04-24T01:49:33;0.27;;;0.27;;
10403;SDS011;5248;47.374;8.486;2023-04-24T01:52:00;0.13;;;0.10;;
10403;SDS011;5248;47.374;8.486;2023-04-24T01:54:27;0.30;;;0.10;;
10403;SDS011;5248;47.374;8.486;2023-04-24T01:56:55;0.30;;;0.30;;
10403;SDS011;5248;47.374;8.486;2023-04-24T01:59:22;0.20;;;0.10;;
10403;SDS011;5248;47.374;8.486;2023-04-24T02:01:49;0.13;;;0.10;;
10403;SDS011;5248;47.374;8.486;2023-04-24T02:04:15;0.10;;;0.10;;
10403;SDS011;5248;47.374;8.486;2023-04-24T02:06:42;0.30;;;0.30;;
10403;SDS011;5248;47.374;8.486;2023-04-24T02:09:08;0.10;;;0.10;;
10403;SDS011;5248;47.374;8.486;2023-04-24T02:11:35;0.50;;;0.13;;
10403;SDS011;5248;47.374;8.486;2023-04-24T02:14:03;0.27;;;0.10;;
10403;SDS011;5248;47.374;8.486;2023-04-24T02:16:29;0.00;;;0.00;;
10403;SDS011;5248;47.374;8.486;2023-04-24T02:18:57;0.10;;;0.10;;
10403;SDS011;5248;47.374;8.486;2023-04-24T02:21:23;0.33;;;0.33;;
10403;SDS011;5248;47.374;8.486;2023-04-24T02:23:52;0.30;;;0.20;;
10403;SDS011;5248;47.374;8.486;2023-04-24T02:26:20;0.03;;;0.03;;
10403;SDS011;5248;47.374;8.486;2023-04-24T02:28:46;0.17;;;0.13;;
10403;SDS011;5248;47.374;8.486;2023-04-24T02:31:14;0.23;;;0.20;;
10403;SDS011;5248;47.374;8.486;2023-04-24T02:33:41;0.10;;;0.10;;
10403;SDS011;5248;47.374;8.486;2023-04-24T02:36:07;0.10;;;0.10;;
10403;SDS011;5248;47.374;8.486;2023-04-24T02:38:34;0.10;;;0.10;;
10403;SDS011;5248;47.374;8.486;2023-04-24T02:41:00;0.10;;;0.10;;
10403;SDS011;5248;47.374;8.486;2023-04-24T02:43:31;0.13;;;0.13;;
10403;SDS011;5248;47.374;8.486;2023-04-24T02:45:57;0.17;;;0.07;;
10403;SDS011;5248;47.374;8.486;2023-04-24T02:48:25;0.00;;;0.00;;
10403;SDS011;5248;47.374;8.486;2023-04-24T02:50:52;0.20;;;0.20;;
10403;SDS011;5248;47.374;8.486;2023-04-24T02:53:20;0.13;;;0.13;;
10403;SDS011;5248;47.374;8.486;2023-04-24T02:55:47;1.33;;;0.10;;
10403;SDS011;5248;47.374;8.486;2023-04-24T02:58:15;0.10;;;0.10;;
10403;SDS011;5248;47.374;8.486;2023-04-24T03:00:42;0.00;;;0.00;;
10403;SDS011;5248;47.374;8.486;2023-04-24T03:03:09;0.40;;;0.10;;
10403;SDS011;5248;47.374;8.486;2023-04-24T03:05:37;0.87;;;0.10;;
10403;SDS011;5248;47.374;8.486;2023-04-24T03:08:03;0.30;;;0.10;;
10403;SDS011;5248;47.374;8.486;2023-04-24T03:10:30;0.23;;;0.20;;
10403;SDS011;5248;47.374;8.486;2023-04-24T03:12:57;0.20;;;0.10;;
10403;SDS011;5248;47.374;8.486;2023-04-24T03:15:23;0.37;;;0.10;;
10403;SDS011;5248;47.374;8.486;2023-04-24T03:17:50;0.10;;;0.10;;
10403;SDS011;5248;47.374;8.486;2023-04-24T03:20:17;0.10;;;0.10;;
10403;SDS011;5248;47.374;8.486;2023-04-24T03:22:45;0.10;;;0.10;;
10403;SDS011;5248;47.374;8.486;2023-04-24T03:25:13;0.10;;;0.10;;
10403;SDS011;5248;47.374;8.486;2023-04-24T03:27:39;0.37;;;0.20;;
10403;SDS011;5248;47.374;8.486;2023-04-24T03:30:07;0.10;;;0.10;;
10403;SDS011;5248;47.374;8.486;2023-04-24T03:32:34;0.00;;;0.00;;
10403;SDS011;5248;47.374;8.486;2023-04-24T03:35:05;0.07;;;0.07;;
10403;SDS011;5248;47.374;8.486;2023-04-24T03:37:33;0.00;;;0.00;;
10403;SDS011;5248;47.374;8.486;2023-04-24T03:40:01;0.10;;;0.10;;
10403;SDS011;5248;47.374;8.486;2023-04-24T03:42:28;0.33;;;0.20;;
10403;SDS011;5248;47.374;8.486;2023-04-24T03:44:54;0.20;;;0.10;;
10403;SDS011;5248;47.374;8.486;2023-04-24T03:47:22;0.73;;;0.10;;
10403;SDS011;5248;47.374;8.486;2023-04-24T03:49:48;0.10;;;0.10;;
10403;SDS011;5248;47.374;8.486;2023-04-24T03:52:15;0.20;;;0.20;;
10403;SDS011;5248;47.374;8.486;2023-04-24T03:54:41;0.47;;;0.10;;
10403;SDS011;5248;47.374;8.486;2023-04-24T03:57:09;0.10;;;0.10;;
10403;SDS011;5248;47.374;8.486;2023-04-24T03:59:38;0.87;;;0.10;;
10403;SDS011;5248;47.374;8.486;2023-04-24T04:02:06;0.20;;;0.03;;
10403;SDS011;5248;47.374;8.486;2023-04-24T04:04:32;0.27;;;0.27;;
10403;SDS011;5248;47.374;8.486;2023-04-24T04:06:59;0.10;;;0.10;;
10403;SDS011;5248;47.374;8.486;2023-04-24T04:09:26;0.20;;;0.20;;
10403;SDS011;5248;47.374;8.486;2023-04-24T04:11:53;0.30;;;0.20;;
10403;SDS011;5248;47.374;8.486;2023-04-24T04:14:21;0.10;;;0.10;;
10403;SDS011;5248;47.374;8.486;2023-04-24T04:16:48;0.20;;;0.20;;
10403;SDS011;5248;47.374;8.486;2023-04-24T04:19:15;0.10;;;0.10;;
10403;SDS011;5248;47.374;8.486;2023-04-24T04:21:41;0.00;;;0.00;;
10403;SDS011;5248;47.374;8.486;2023-04-24T04:24:10;0.97;;;0.97;;
10403;SDS011;5248;47.374;8.486;2023-04-24T04:26:37;0.37;;;0.33;;
10403;SDS011;5248;47.374;8.486;2023-04-24T04:29:04;0.20;;;0.20;;
10403;SDS011;5248;47.374;8.486;2023-04-24T04:31:33;0.20;;;0.20;;
10403;SDS011;5248;47.374;8.486;2023-04-24T04:33:59;0.57;;;0.30;;
10403;SDS011;5248;47.374;8.486;2023-04-24T04:36:26;0.50;;;0.10;;
10403;SDS011;5248;47.374;8.486;2023-04-24T04:38:54;0.10;;;0.10;;
10403;SDS011;5248;47.374;8.486;2023-04-24T04:41:21;0.20;;;0.20;;
10403;SDS011;5248;47.374;8.486;2023-04-24T04:43:48;0.20;;;0.20;;
10403;SDS011;5248;47.374;8.486;2023-04-24T04:46:14;0.80;;;0.30;;
10403;SDS011;5248;47.374;8.486;2023-04-24T04:48:43;0.50;;;0.50;;
10403;SDS011;5248;47.374;8.486;2023-04-24T04:51:09;0.20;;;0.20;;
10403;SDS011;5248;47.374;8.486;2023-04-24T04:53:36;0.20;;;0.20;;
10403;SDS011;5248;47.374;8.486;2023-04-24T04:56:02;0.40;;;0.30;;
10403;SDS011;5248;47.374;8.486;2023-04-24T04:58:28;0.27;;;0.20;;
10403;SDS011;5248;47.374;8.486;2023-04-24T05:00:55;0.50;;;0.23;;
10403;SDS011;5248;47.374;8.486;2023-04-24T05:03:22;0.67;;;0.30;;
10403;SDS011;5248;47.374;8.486;2023-04-24T05:05:50;0.50;;;0.30;;
10403;SDS011;5248;47.374;8.486;2023-04-24T05:08:16;0.30;;;0.30;;
10403;SDS011;5248;47.374;8.486;2023-04-24T05:10:43;0.27;;;0.17;;
10403;SDS011;5248;47.374;8.486;2023-04-24T05:13:09;0.20;;;0.17;;
10403;SDS011;5248;47.374;8.486;2023-04-24T05:15:36;0.30;;;0.30;;
10403;SDS011;5248;47.374;8.486;2023-04-24T05:18:02;0.50;;;0.20;;
10403;SDS011;5248;47.374;8.486;2023-04-24T05:20:29;0.30;;;0.23;;
10403;SDS011;5248;47.374;8.486;2023-04-24T05:22:57;0.97;;;0.50;;
10403;SDS011;5248;47.374;8.486;2023-04-24T05:25:23;0.20;;;0.20;;
10403;SDS011;5248;47.374;8.486;2023-04-24T05:27:50;1.30;;;0.40;;
10403;SDS011;5248;47.374;8.486;2023-04-24T05:30:16;0.50;;;0.43;;
10403;SDS011;5248;47.374;8.486;2023-04-24T05:32:42;0.50;;;0.50;;
10403;SDS011;5248;47.374;8.486;2023-04-24T05:35:09;0.63;;;0.30;;
10403;SDS011;5248;47.374;8.486;2023-04-24T05:37:36;0.30;;;0.30;;
10403;SDS011;5248;47.374;8.486;2023-04-24T05:40:04;0.33;;;0.33;;
10403;SDS011;5248;47.374;8.486;2023-04-24T05:42:32;0.40;;;0.40;;
10403;SDS011;5248;47.374;8.486;2023-04-24T05:44:58;0.50;;;0.50;;
10403;SDS011;5248;47.374;8.486;2023-04-24T05:47:25;0.50;;;0.40;;
10403;SDS011;5248;47.374;8.486;2023-04-24T05:49:53;0.50;;;0.50;;
10403;SDS011;5248;47.374;8.486;2023-04-24T05:52:19;0.63;;;0.63;;
10403;SDS011;5248;47.374;8.486;2023-04-24T05:54:46;1.03;;;0.77;;
10403;SDS011;5248;47.374;8.486;2023-04-24T05:57:13;0.63;;;0.63;;
10403;SDS011;5248;47.374;8.486;2023-04-24T05:59:40;0.50;;;0.50;;
10403;SDS011;5248;47.374;8.486;2023-04-24T06:02:07;0.97;;;0.40;;
10403;SDS011;5248;47.374;8.486;2023-04-24T06:04:33;0.33;;;0.33;;
10403;SDS011;5248;47.374;8.486;2023-04-24T06:07:00;0.40;;;0.40;;
10403;SDS011;5248;47.374;8.486;2023-04-24T06:09:27;1.33;;;0.60;;
10403;SDS011;5248;47.374;8.486;2023-04-24T06:11:54;0.40;;;0.40;;
10403;SDS011;5248;47.374;8.486;2023-04-24T06:14:22;0.73;;;0.37;;
10403;SDS011;5248;47.374;8.486;2023-04-24T06:16:49;0.37;;;0.37;;
10403;SDS011;5248;47.374;8.486;2023-04-24T06:19:16;0.83;;;0.60;;
10403;SDS011;5248;47.374;8.486;2023-04-24T06:21:42;0.37;;;0.37;;
10403;SDS011;5248;47.374;8.486;2023-04-24T06:24:09;0.47;;;0.47;;
10403;SDS011;5248;47.374;8.486;2023-04-24T06:26:37;0.43;;;0.40;;
10403;SDS011;5248;47.374;8.486;2023-04-24T06:29:03;0.40;;;0.40;;
10403;SDS011;5248;47.374;8.486;2023-04-24T06:31:31;0.63;;;0.50;;
10403;SDS011;5248;47.374;8.486;2023-04-24T06:34:01;1.03;;;0.57;;
10403;SDS011;5248;47.374;8.486;2023-04-24T06:36:28;0.60;;;0.50;;
10403;SDS011;5248;47.374;8.486;2023-04-24T06:38:56;0.77;;;0.50;;
10403;SDS011;5248;47.374;8.486;2023-04-24T06:41:22;0.53;;;0.53;;
10403;SDS011;5248;47.374;8.486;2023-04-24T06:43:49;0.60;;;0.60;;
10403;SDS011;5248;47.374;8.486;2023-04-24T06:46:16;2.37;;;0.70;;
10403;SDS011;5248;47.374;8.486;2023-04-24T06:48:44;0.47;;;0.40;;
10403;SDS011;5248;47.374;8.486;2023-04-24T06:51:11;0.80;;;0.40;;
10403;SDS011;5248;47.374;8.486;2023-04-24T06:53:37;0.60;;;0.60;;
10403;SDS011;5248;47.374;8.486;2023-04-24T06:56:03;1.47;;;0.60;;
10403;SDS011;5248;47.374;8.486;2023-04-24T06:58:30;0.40;;;0.40;;
10403;SDS011;5248;47.374;8.486;2023-04-24T07:00:56;0.40;;;0.40;;
10403;SDS011;5248;47.374;8.486;2023-04-24T07:03:23;0.57;;;0.57;;
10403;SDS011;5248;47.374;8.486;2023-04-24T07:05:51;0.70;;;0.70;;
10403;SDS011;5248;47.374;8.486;2023-04-24T07:08:18;0.50;;;0.50;;
10403;SDS011;5248;47.374;8.486;2023-04-24T07:10:45;1.70;;;0.60;;
10403;SDS011;5248;47.374;8.486;2023-04-24T07:13:12;0.80;;;0.60;;
10403;SDS011;5248;47.374;8.486;2023-04-24T07:15:38;0.40;;;0.40;;
10403;SDS011;5248;47.374;8.486;2023-04-24T07:18:06;1.07;;;0.70;;
10403;SDS011;5248;47.374;8.486;2023-04-24T07:20:32;1.23;;;0.87;;
10403;SDS011;5248;47.374;8.486;2023-04-24T07:23:00;6.30;;;5.73;;
10403;SDS011;5248;47.374;8.486;2023-04-24T07:25:27;1.23;;;1.13;;
10403;SDS011;5248;47.374;8.486;2023-04-24T07:27:53;1.17;;;0.70;;
10403;SDS011;5248;47.374;8.486;2023-04-24T07:30:20;0.67;;;0.60;;
10403;SDS011;5248;47.374;8.486;2023-04-24T07:32:46;2.13;;;0.80;;
10403;SDS011;5248;47.374;8.486;2023-04-24T07:35:14;1.50;;;0.80;;
10403;SDS011;5248;47.374;8.486;2023-04-24T07:37:40;0.80;;;0.80;;
10403;SDS011;5248;47.374;8.486;2023-04-24T07:40:12;1.03;;;0.77;;
10403;SDS011;5248;47.374;8.486;2023-04-24T07:42:38;0.85;;;0.80;;
10403;SDS011;5248;47.374;8.486;2023-04-24T07:45:05;0.67;;;0.63;;
10403;SDS011;5248;47.374;8.486;2023-04-24T07:47:32;1.90;;;1.00;;
10403;SDS011;5248;47.374;8.486;2023-04-24T07:50:00;0.90;;;0.80;;
10403;SDS011;5248;47.374;8.486;2023-04-24T07:52:26;0.70;;;0.68;;
10403;SDS011;5248;47.374;8.486;2023-04-24T07:54:54;1.27;;;1.00;;
10403;SDS011;5248;47.374;8.486;2023-04-24T07:57:24;1.67;;;0.90;;
10403;SDS011;5248;47.374;8.486;2023-04-24T07:59:51;3.30;;;1.40;;
10403;SDS011;5248;47.374;8.486;2023-04-24T08:02:17;2.30;;;1.63;;
10403;SDS011;5248;47.374;8.486;2023-04-24T08:04:44;2.43;;;1.60;;
10403;SDS011;5248;47.374;8.486;2023-04-24T08:07:10;1.90;;;1.50;;
10403;SDS011;5248;47.374;8.486;2023-04-24T08:09:37;5.03;;;1.80;;
10403;SDS011;5248;47.374;8.486;2023-04-24T08:12:04;1.70;;;1.57;;
10403;SDS011;5248;47.374;8.486;2023-04-24T08:14:32;1.40;;;1.30;;
10403;SDS011;5248;47.374;8.486;2023-04-24T08:16:58;1.23;;;1.13;;
10403;SDS011;5248;47.374;8.486;2023-04-24T08:19:26;3.43;;;1.50;;
10403;SDS011;5248;47.374;8.486;2023-04-24T08:21:52;2.30;;;1.80;;
10403;SDS011;5248;47.374;8.486;2023-04-24T08:24:19;2.13;;;1.40;;
10403;SDS011;5248;47.374;8.486;2023-04-24T08:26:45;1.43;;;1.30;;
10403;SDS011;5248;47.374;8.486;2023-04-24T08:29:15;3.03;;;2.33;;
10403;SDS011;5248;47.374;8.486;2023-04-24T08:31:43;2.73;;;1.50;;
10403;SDS011;5248;47.374;8.486;2023-04-24T08:34:09;1.70;;;1.60;;
10403;SDS011;5248;47.374;8.486;2023-04-24T08:36:36;3.00;;;2.40;;
10403;SDS011;5248;47.374;8.486;2023-04-24T08:39:02;2.83;;;2.63;;
10403;SDS011;5248;47.374;8.486;2023-04-24T08:41:29;3.20;;;2.30;;
10403;SDS011;5248;47.374;8.486;2023-04-24T08:43:56;2.97;;;2.10;;
10403;SDS011;5248;47.374;8.486;2023-04-24T08:46:25;3.37;;;2.10;;
10403;SDS011;5248;47.374;8.486;2023-04-24T08:48:53;3.07;;;2.27;;
10403;SDS011;5248;47.374;8.486;2023-04-24T08:51:19;2.63;;;2.27;;
10403;SDS011;5248;47.374;8.486;2023-04-24T08:53:46;3.37;;;2.13;;
10403;SDS011;5248;47.374;8.486;2023-04-24T08:56:13;3.53;;;2.40;;
10403;SDS011;5248;47.374;8.486;2023-04-24T08:58:39;5.57;;;2.60;;
10403;SDS011;5248;47.374;8.486;2023-04-24T09:01:06;2.57;;;2.37;;
10403;SDS011;5248;47.374;8.486;2023-04-24T09:03:33;2.93;;;2.10;;
10403;SDS011;5248;47.374;8.486;2023-04-24T09:06:02;3.03;;;2.73;;
10403;SDS011;5248;47.374;8.486;2023-04-24T09:08:28;3.50;;;2.47;;
10403;SDS011;5248;47.374;8.486;2023-04-24T09:10:55;2.30;;;2.20;;
10403;SDS011;5248;47.374;8.486;2023-04-24T09:13:23;5.63;;;2.20;;
10403;SDS011;5248;47.374;8.486;2023-04-24T09:15:50;2.10;;;1.90;;
10403;SDS011;5248;47.374;8.486;2023-04-24T09:18:17;2.90;;;2.13;;
10403;SDS011;5248;47.374;8.486;2023-04-24T09:20:59;3.13;;;2.30;;
10403;SDS011;5248;47.374;8.486;2023-04-24T09:23:29;2.40;;;2.20;;
10403;SDS011;5248;47.374;8.486;2023-04-24T09:25:56;4.77;;;3.40;;
10403;SDS011;5248;47.374;8.486;2023-04-24T09:28:25;2.47;;;1.70;;
10403;SDS011;5248;47.374;8.486;2023-04-24T09:31:01;2.23;;;1.80;;
10403;SDS011;5248;47.374;8.486;2023-04-24T09:33:29;2.17;;;1.90;;
10403;SDS011;5248;47.374;8.486;2023-04-24T09:35:55;2.13;;;1.93;;
10403;SDS011;5248;47.374;8.486;2023-04-24T09:38:31;4.90;;;1.97;;
10403;SDS011;5248;47.374;8.486;2023-04-24T09:40:59;2.60;;;2.40;;
10403;SDS011;5248;47.374;8.486;2023-04-24T09:43:28;2.17;;;1.97;;
10403;SDS011;5248;47.374;8.486;2023-04-24T09:45:55;2.87;;;1.67;;
10403;SDS011;5248;47.374;8.486;2023-04-24T09:48:29;3.07;;;2.07;;
10403;SDS011;5248;47.374;8.486;2023-04-24T09:50:56;1.80;;;1.70;;
10403;SDS011;5248;47.374;8.486;2023-04-24T09:53:23;2.10;;;1.93;;
10403;SDS011;5248;47.374;8.486;2023-04-24T09:55:51;2.30;;;1.97;;
10403;SDS011;5248;47.374;8.486;2023-04-24T09:58:18;2.00;;;1.60;;
10403;SDS011;5248;47.374;8.486;2023-04-24T10:00:50;2.57;;;1.63;;
10403;SDS011;5248;47.374;8.486;2023-04-24T10:03:19;2.70;;;1.63;;
10403;SDS011;5248;47.374;8.486;2023-04-24T10:05:46;2.80;;;1.80;;
10403;SDS011;5248;47.374;8.486;2023-04-24T10:08:13;2.10;;;1.80;;
10403;SDS011;5248;47.374;8.486;2023-04-24T10:10:41;1.87;;;1.77;;
10403;SDS011;5248;47.374;8.486;2023-04-24T10:13:10;2.57;;;1.63;;
10403;SDS011;5248;47.374;8.486;2023-04-24T10:15:40;2.08;;;1.90;;
10403;SDS011;5248;47.374;8.486;2023-04-24T10:18:07;1.37;;;1.20;;
10403;SDS011;5248;47.374;8.486;2023-04-24T10:20:34;2.35;;;1.50;;
10403;SDS011;5248;47.374;8.486;2023-04-24T10:23:02;3.20;;;1.58;;
10403;SDS011;5248;47.374;8.486;2023-04-24T10:25:30;4.72;;;1.83;;
10403;SDS011;5248;47.374;8.486;2023-04-24T10:27:57;3.63;;;1.70;;
10403;SDS011;5248;47.374;8.486;2023-04-24T10:30:27;2.00;;;1.80;;
10403;SDS011;5248;47.374;8.486;2023-04-24T10:32:54;4.30;;;1.73;;
10403;SDS011;5248;47.374;8.486;2023-04-24T10:35:21;1.35;;;1.25;;
10403;SDS011;5248;47.374;8.486;2023-04-24T10:37:52;3.30;;;1.90;;
10403;SDS011;5248;47.374;8.486;2023-04-24T10:40:25;1.65;;;1.55;;
10403;SDS011;5248;47.374;8.486;2023-04-24T10:42:52;2.25;;;1.52;;
10403;SDS011;5248;47.374;8.486;2023-04-24T10:45:21;1.50;;;1.40;;
10403;SDS011;5248;47.374;8.486;2023-04-24T10:47:53;3.72;;;1.65;;
10403;SDS011;5248;47.374;8.486;2023-04-24T10:50:22;1.45;;;1.27;;
10403;SDS011;5248;47.374;8.486;2023-04-24T10:52:49;2.20;;;1.70;;
10403;SDS011;5248;47.374;8.486;2023-04-24T10:55:16;2.92;;;1.63;;
10403;SDS011;5248;47.374;8.486;2023-04-24T11:00:27;2.72;;;1.60;;
10403;SDS011;5248;47.374;8.486;2023-04-24T11:02:56;2.75;;;1.48;;
10403;SDS011;5248;47.374;8.486;2023-04-24T11:05:24;2.03;;;1.70;;
10403;SDS011;5248;47.374;8.486;2023-04-24T11:08:16;2.95;;;1.80;;
10403;SDS011;5248;47.374;8.486;2023-04-24T11:10:54;1.75;;;1.65;;
10403;SDS011;5248;47.374;8.486;2023-04-24T11:13:21;1.23;;;1.20;;
10403;SDS011;5248;47.374;8.486;2023-04-24T11:18:41;1.83;;;1.45;;
10403;SDS011;5248;47.374;8.486;2023-04-24T11:21:10;2.73;;;1.80;;
10403;SDS011;5248;47.374;8.486;2023-04-24T11:23:37;2.90;;;1.60;;
10403;SDS011;5248;47.374;8.486;2023-04-24T11:26:16;2.40;;;1.70;;
10403;SDS011;5248;47.374;8.486;2023-04-24T11:28:44;5.33;;;1.93;;
10403;SDS011;5248;47.374;8.486;2023-04-24T11:34:06;1.55;;;1.35;;
10403;SDS011;5248;47.374;8.486;2023-04-24T11:36:33;1.60;;;1.50;;
10403;SDS011;5248;47.374;8.486;2023-04-24T11:39:01;2.90;;;1.50;;
10403;SDS011;5248;47.374;8.486;2023-04-24T11:41:28;1.60;;;1.50;;
10403;SDS011;5248;47.374;8.486;2023-04-24T11:43:54;3.10;;;2.03;;
10403;SDS011;5248;47.374;8.486;2023-04-24T11:46:21;2.50;;;1.93;;
10403;SDS011;5248;47.374;8.486;2023-04-24T11:48:48;4.63;;;2.03;;
10403;SDS011;5248;47.374;8.486;2023-04-24T11:51:16;4.17;;;2.07;;
10403;SDS011;5248;47.374;8.486;2023-04-24T11:53:42;3.33;;;1.90;;
10403;SDS011;5248;47.374;8.486;2023-04-24T11:56:09;2.40;;;1.90;;
10403;SDS011;5248;47.374;8.486;2023-04-24T11:58:36;1.93;;;1.60;;
10403;SDS011;5248;47.374;8.486;2023-04-24T12:01:04;1.93;;;1.73;;
10403;SDS011;5248;47.374;8.486;2023-04-24T12:03:30;1.87;;;1.70;;
10403;SDS011;5248;47.374;8.486;2023-04-24T12:06:04;2.28;;;2.08;;
10403;SDS011;5248;47.374;8.486;2023-04-24T12:08:34;1.88;;;1.77;;
10403;SDS011;5248;47.374;8.486;2023-04-24T12:11:00;3.30;;;1.63;;
10403;SDS011;5248;47.374;8.486;2023-04-24T12:13:28;1.70;;;1.60;;
10403;SDS011;5248;47.374;8.486;2023-04-24T12:15:56;1.83;;;1.70;;
10403;SDS011;5248;47.374;8.486;2023-04-24T12:18:22;2.50;;;1.98;;
10403;SDS011;5248;47.374;8.486;2023-04-24T12:20:49;1.60;;;1.50;;
10403;SDS011;5248;47.374;8.486;2023-04-24T12:23:16;2.42;;;1.70;;
10403;SDS011;5248;47.374;8.486;2023-04-24T12:25:44;2.90;;;1.87;;
10403;SDS011;5248;47.374;8.486;2023-04-24T12:28:11;1.50;;;1.40;;
10403;SDS011;5248;47.374;8.486;2023-04-24T12:30:39;2.05;;;1.52;;
10403;SDS011;5248;47.374;8.486;2023-04-24T12:33:11;3.40;;;1.63;;
10403;SDS011;5248;47.374;8.486;2023-04-24T12:35:39;1.73;;;1.50;;
10403;SDS011;5248;47.374;8.486;2023-04-24T12:38:06;3.00;;;1.87;;
10403;SDS011;5248;47.374;8.486;2023-04-24T12:40:33;1.27;;;1.20;;
10403;SDS011;5248;47.374;8.486;2023-04-24T12:43:01;2.33;;;1.67;;
10403;SDS011;5248;47.374;8.486;2023-04-24T12:45:27;1.40;;;1.30;;
10403;SDS011;5248;47.374;8.486;2023-04-24T12:47:54;2.47;;;1.63;;
10403;SDS011;5248;47.374;8.486;2023-04-24T12:50:20;1.40;;;1.30;;
10403;SDS011;5248;47.374;8.486;2023-04-24T12:52:47;1.97;;;1.23;;
10403;SDS011;5248;47.374;8.486;2023-04-24T12:55:14;1.43;;;1.33;;
10403;SDS011;5248;47.374;8.486;2023-04-24T12:57:40;1.90;;;1.77;;
10403;SDS011;5248;47.374;8.486;2023-04-24T13:00:08;2.03;;;1.60;;
10403;SDS011;5248;47.374;8.486;2023-04-24T13:02:35;1.20;;;1.13;;
10403;SDS011;5248;47.374;8.486;2023-04-24T13:05:02;2.97;;;1.30;;
10403;SDS011;5248;47.374;8.486;2023-04-24T13:07:29;1.38;;;1.27;;
10403;SDS011;5248;47.374;8.486;2023-04-24T13:09:55;1.87;;;1.37;;
10403;SDS011;5248;47.374;8.486;2023-04-24T13:12:22;2.00;;;1.48;;
10403;SDS011;5248;47.374;8.486;2023-04-24T13:14:50;1.52;;;1.33;;
10403;SDS011;5248;47.374;8.486;2023-04-24T13:17:18;1.55;;;1.40;;
10403;SDS011;5248;47.374;8.486;2023-04-24T13:19:44;1.83;;;1.33;;
10403;SDS011;5248;47.374;8.486;2023-04-24T13:22:11;3.03;;;1.40;;
10403;SDS011;5248;47.374;8.486;2023-04-24T13:24:39;1.55;;;1.40;;
10403;SDS011;5248;47.374;8.486;2023-04-24T13:27:06;1.95;;;1.45;;
10403;SDS011;5248;47.374;8.486;2023-04-24T13:29:33;1.50;;;1.40;;
10403;SDS011;5248;47.374;8.486;2023-04-24T13:31:59;2.00;;;1.50;;
10403;SDS011;5248;47.374;8.486;2023-04-24T13:34:27;4.22;;;1.50;;
10403;SDS011;5248;47.374;8.486;2023-04-24T13:36:55;1.60;;;1.50;;
10403;SDS011;5248;47.374;8.486;2023-04-24T13:39:23;2.00;;;1.70;;
10403;SDS011;5248;47.374;8.486;2023-04-24T13:41:50;3.65;;;1.80;;
10403;SDS011;5248;47.374;8.486;2023-04-24T13:44:17;3.80;;;1.90;;
10403;SDS011;5248;47.374;8.486;2023-04-24T13:46:44;2.38;;;2.17;;
10403;SDS011;5248;47.374;8.486;2023-04-24T13:49:11;2.33;;;1.97;;
10403;SDS011;5248;47.374;8.486;2023-04-24T13:51:40;2.58;;;1.92;;
10403;SDS011;5248;47.374;8.486;2023-04-24T13:54:06;3.13;;;2.28;;
10403;SDS011;5248;47.374;8.486;2023-04-24T13:56:33;2.33;;;1.93;;
10403;SDS011;5248;47.374;8.486;2023-04-24T13:58:59;2.37;;;2.13;;
10403;SDS011;5248;47.374;8.486;2023-04-24T14:01:26;2.53;;;1.90;;
10403;SDS011;5248;47.374;8.486;2023-04-24T14:03:52;3.78;;;2.08;;
10403;SDS011;5248;47.374;8.486;2023-04-24T14:06:19;4.07;;;1.90;;
10403;SDS011;5248;47.374;8.486;2023-04-24T14:08:47;4.10;;;1.97;;
10403;SDS011;5248;47.374;8.486;2023-04-24T14:11:13;2.80;;;2.00;;
10403;SDS011;5248;47.374;8.486;2023-04-24T14:13:40;2.33;;;1.97;;
10403;SDS011;5248;47.374;8.486;2023-04-24T14:16:07;2.43;;;1.80;;
10403;SDS011;5248;47.374;8.486;2023-04-24T14:18:34;3.53;;;1.90;;
10403;SDS011;5248;47.374;8.486;2023-04-24T14:21:01;2.00;;;1.80;;
10403;SDS011;5248;47.374;8.486;2023-04-24T14:23:27;2.07;;;1.77;;
10403;SDS011;5248;47.374;8.486;2023-04-24T14:25:55;3.63;;;1.90;;
10403;SDS011;5248;47.374;8.486;2023-04-24T14:28:22;4.50;;;2.00;;
10403;SDS011;5248;47.374;8.486;2023-04-24T14:30:49;6.70;;;2.03;;
10403;SDS011;5248;47.374;8.486;2023-04-24T14:33:15;2.27;;;2.07;;
10403;SDS011;5248;47.374;8.486;2023-04-24T14:35:42;4.43;;;2.30;;
10403;SDS011;5248;47.374;8.486;2023-04-24T14:38:10;2.87;;;2.17;;
10403;SDS011;5248;47.374;8.486;2023-04-24T14:40:37;2.00;;;1.90;;
10403;SDS011;5248;47.374;8.486;2023-04-24T14:43:05;3.27;;;1.80;;
10403;SDS011;5248;47.374;8.486;2023-04-24T14:45:32;1.90;;;1.80;;
10403;SDS011;5248;47.374;8.486;2023-04-24T14:47:58;3.33;;;1.97;;
10403;SDS011;5248;47.374;8.486;2023-04-24T14:50:24;2.13;;;1.90;;
10403;SDS011;5248;47.374;8.486;2023-04-24T14:52:52;2.07;;;1.90;;
10403;SDS011;5248;47.374;8.486;2023-04-24T14:55:19;3.37;;;2.10;;
10403;SDS011;5248;47.374;8.486;2023-04-24T14:57:46;1.97;;;1.87;;
10403;SDS011;5248;47.374;8.486;2023-04-24T15:00:14;5.67;;;2.17;;
10403;SDS011;5248;47.374;8.486;2023-04-24T15:02:42;2.40;;;2.13;;
10403;SDS011;5248;47.374;8.486;2023-04-24T15:05:09;1.87;;;1.77;;
10403;SDS011;5248;47.374;8.486;2023-04-24T15:07:36;2.00;;;1.90;;
10403;SDS011;5248;47.374;8.486;2023-04-24T15:10:03;2.03;;;1.83;;